sensor_id;sensor_type;location;lat;lon;timestamp;P1;durP1;ratioP1;P2;durP2;ratioP2
12314;SDS011;23886;46.614;14.276;2022-10-16T00:00:57;38.87;;;34.50;;
12314;SDS011;23886;46.614;14.276;2022-10-16T00:03:24;41.13;;;35.03;;
12314;SDS011;23886;46.614;14.276;2022-10-16T00:05:52;39.83;;;34.57;;
12314;SDS011;23886;46.614;14.276;2022-10-16T00:08:19;42.03;;;34.60;;
12314;SDS011;23886;46.614;14.276;2022-10-16T00:10:46;39.40;;;33.77;;
12314;SDS011;23886;46.614;14.276;2022-10-16T00:13:13;39.43;;;34.77;;
12314;SDS011;23886;46.614;14.276;2022-10-16T00:15:42;45.13;;;35.97;;
12314;SDS011;23886;46.614;14.276;2022-10-16T00:18:09;39.47;;;35.10;;
12314;SDS011;23886;46.614;14.276;2022-10-16T00:20:36;40.93;;;36.17;;
12314;SDS011;23886;46.614;14.276;2022-10-16T00:23:05;40.30;;;35.07;;
12314;SDS011;23886;46.614;14.276;2022-10-16T00:25:32;42.13;;;34.40;;
12314;SDS011;23886;46.614;14.276;2022-10-16T00:27:59;39.67;;;34.00;;
12314;SDS011;23886;46.614;14.276;2022-10-16T00:30:26;42.53;;;35.73;;
12314;SDS011;23886;46.614;14.276;2022-10-16T00:32:54;44.43;;;35.90;;
12314;SDS011;23886;46.614;14.276;2022-10-16T00:35:21;39.87;;;34.87;;
12314;SDS011;23886;46.614;14.276;2022-10-16T00:37:48;40.90;;;34.27;;
12314;SDS011;23886;46.614;14.276;2022-10-16T00:40:17;49.63;;;38.10;;
12314;SDS011;23886;46.614;14.276;2022-10-16T00:42:44;45.33;;;37.70;;
12314;SDS011;23886;46.614;14.276;2022-10-16T00:45:11;43.83;;;37.30;;
12314;SDS011;23886;46.614;14.276;2022-10-16T00:47:39;42.83;;;34.63;;
12314;SDS011;23886;46.614;14.276;2022-10-16T00:50:11;42.13;;;35.40;;
12314;SDS011;23886;46.614;14.276;2022-10-16T00:52:44;41.53;;;35.90;;
12314;SDS011;23886;46.614;14.276;2022-10-16T00:55:14;41.43;;;35.27;;
12314;SDS011;23886;46.614;14.276;2022-10-16T00:57:42;44.33;;;36.30;;
12314;SDS011;23886;46.614;14.276;2022-10-16T01:00:16;37.93;;;33.73;;
12314;SDS011;23886;46.614;14.276;2022-10-16T01:02:51;41.83;;;35.40;;
12314;SDS011;23886;46.614;14.276;2022-10-16T01:05:19;39.97;;;34.20;;
12314;SDS011;23886;46.614;14.276;2022-10-16T01:07:48;39.27;;;33.77;;
12314;SDS011;23886;46.614;14.276;2022-10-16T01:10:27;40.03;;;34.87;;
12314;SDS011;23886;46.614;14.276;2022-10-16T01:13:03;40.40;;;34.53;;
12314;SDS011;23886;46.614;14.276;2022-10-16T01:15:33;38.90;;;34.57;;
12314;SDS011;23886;46.614;14.276;2022-10-16T01:18:04;41.00;;;36.60;;
12314;SDS011;23886;46.614;14.276;2022-10-16T01:20:37;38.60;;;34.40;;
12314;SDS011;23886;46.614;14.276;2022-10-16T01:23:14;42.40;;;36.67;;
12314;SDS011;23886;46.614;14.276;2022-10-16T01:25:57;42.87;;;36.60;;
12314;SDS011;23886;46.614;14.276;2022-10-16T01:28:50;39.00;;;34.20;;
12314;SDS011;23886;46.614;14.276;2022-10-16T01:31:22;39.27;;;34.10;;
12314;SDS011;23886;46.614;14.276;2022-10-16T01:33:53;39.67;;;34.13;;
12314;SDS011;23886;46.614;14.276;2022-10-16T01:36:26;41.13;;;36.47;;
12314;SDS011;23886;46.614;14.276;2022-10-16T01:39:01;38.13;;;34.03;;
12314;SDS011;23886;46.614;14.276;2022-10-16T01:41:30;42.07;;;35.63;;
12314;SDS011;23886;46.614;14.276;2022-10-16T01:44:03;39.80;;;35.43;;
12314;SDS011;23886;46.614;14.276;2022-10-16T01:46:32;43.23;;;35.70;;
12314;SDS011;23886;46.614;14.276;2022-10-16T01:49:03;42.93;;;35.30;;
12314;SDS011;23886;46.614;14.276;2022-10-16T01:51:31;45.10;;;37.13;;
12314;SDS011;23886;46.614;14.276;2022-10-16T01:54:00;46.50;;;37.17;;
12314;SDS011;23886;46.614;14.276;2022-10-16T01:56:28;44.30;;;36.10;;
12314;SDS011;23886;46.614;14.276;2022-10-16T01:58:57;41.50;;;34.93;;
12314;SDS011;23886;46.614;14.276;2022-10-16T02:01:29;39.47;;;35.07;;
12314;SDS011;23886;46.614;14.276;2022-10-16T02:03:59;42.20;;;37.30;;
12314;SDS011;23886;46.614;14.276;2022-10-16T02:06:33;41.27;;;36.37;;
12314;SDS011;23886;46.614;14.276;2022-10-16T02:09:00;42.53;;;37.67;;
12314;SDS011;23886;46.614;14.276;2022-10-16T02:11:28;40.53;;;36.13;;
12314;SDS011;23886;46.614;14.276;2022-10-16T02:13:55;46.63;;;36.70;;
12314;SDS011;23886;46.614;14.276;2022-10-16T02:16:33;43.87;;;36.20;;
12314;SDS011;23886;46.614;14.276;2022-10-16T02:19:01;47.47;;;36.03;;
12314;SDS011;23886;46.614;14.276;2022-10-16T02:21:29;49.60;;;38.20;;
12314;SDS011;23886;46.614;14.276;2022-10-16T02:24:06;45.37;;;37.67;;
12314;SDS011;23886;46.614;14.276;2022-10-16T02:26:39;52.03;;;38.27;;
12314;SDS011;23886;46.614;14.276;2022-10-16T02:29:12;50.83;;;39.97;;
12314;SDS011;23886;46.614;14.276;2022-10-16T02:31:43;51.20;;;39.20;;
12314;SDS011;23886;46.614;14.276;2022-10-16T02:34:16;49.97;;;38.30;;
12314;SDS011;23886;46.614;14.276;2022-10-16T02:36:44;51.57;;;38.50;;
12314;SDS011;23886;46.614;14.276;2022-10-16T02:39:13;47.80;;;38.63;;
12314;SDS011;23886;46.614;14.276;2022-10-16T02:41:41;51.60;;;39.53;;
12314;SDS011;23886;46.614;14.276;2022-10-16T02:44:08;54.60;;;41.47;;
12314;SDS011;23886;46.614;14.276;2022-10-16T02:46:35;51.67;;;39.73;;
12314;SDS011;23886;46.614;14.276;2022-10-16T02:49:04;59.93;;;41.10;;
12314;SDS011;23886;46.614;14.276;2022-10-16T02:51:31;52.90;;;40.67;;
12314;SDS011;23886;46.614;14.276;2022-10-16T02:53:58;50.70;;;38.93;;
12314;SDS011;23886;46.614;14.276;2022-10-16T02:56:24;53.37;;;40.57;;
12314;SDS011;23886;46.614;14.276;2022-10-16T02:58:51;54.20;;;40.57;;
12314;SDS011;23886;46.614;14.276;2022-10-16T03:01:18;44.83;;;37.67;;
12314;SDS011;23886;46.614;14.276;2022-10-16T03:03:45;52.33;;;39.23;;
12314;SDS011;23886;46.614;14.276;2022-10-16T03:06:14;44.20;;;36.60;;
12314;SDS011;23886;46.614;14.276;2022-10-16T03:08:41;49.70;;;37.57;;
12314;SDS011;23886;46.614;14.276;2022-10-16T03:11:08;44.97;;;38.10;;
12314;SDS011;23886;46.614;14.276;2022-10-16T03:13:35;43.70;;;36.07;;
12314;SDS011;23886;46.614;14.276;2022-10-16T03:16:02;42.00;;;35.87;;
12314;SDS011;23886;46.614;14.276;2022-10-16T03:18:29;37.27;;;32.67;;
12314;SDS011;23886;46.614;14.276;2022-10-16T03:20:56;43.27;;;34.67;;
12314;SDS011;23886;46.614;14.276;2022-10-16T03:23:24;36.93;;;32.93;;
12314;SDS011;23886;46.614;14.276;2022-10-16T03:25:51;36.10;;;30.93;;
12314;SDS011;23886;46.614;14.276;2022-10-16T03:28:19;39.17;;;32.17;;
12314;SDS011;23886;46.614;14.276;2022-10-16T03:30:46;39.27;;;34.10;;
12314;SDS011;23886;46.614;14.276;2022-10-16T03:33:13;36.97;;;31.97;;
12314;SDS011;23886;46.614;14.276;2022-10-16T03:35:39;36.57;;;31.00;;
12314;SDS011;23886;46.614;14.276;2022-10-16T03:38:06;32.70;;;29.40;;
12314;SDS011;23886;46.614;14.276;2022-10-16T03:40:35;31.17;;;28.07;;
12314;SDS011;23886;46.614;14.276;2022-10-16T03:43:02;31.47;;;28.47;;
12314;SDS011;23886;46.614;14.276;2022-10-16T03:45:29;31.47;;;28.27;;
12314;SDS011;23886;46.614;14.276;2022-10-16T03:47:56;32.43;;;29.13;;
12314;SDS011;23886;46.614;14.276;2022-10-16T03:50:23;32.63;;;29.20;;
12314;SDS011;23886;46.614;14.276;2022-10-16T03:52:50;31.80;;;28.57;;
12314;SDS011;23886;46.614;14.276;2022-10-16T03:55:17;33.10;;;29.57;;
12314;SDS011;23886;46.614;14.276;2022-10-16T03:57:45;35.43;;;31.63;;
12314;SDS011;23886;46.614;14.276;2022-10-16T04:00:12;35.13;;;31.53;;
12314;SDS011;23886;46.614;14.276;2022-10-16T04:02:39;35.27;;;31.03;;
12314;SDS011;23886;46.614;14.276;2022-10-16T04:05:07;35.13;;;31.50;;
12314;SDS011;23886;46.614;14.276;2022-10-16T04:07:34;35.43;;;31.60;;
12314;SDS011;23886;46.614;14.276;2022-10-16T04:10:01;37.00;;;33.17;;
12314;SDS011;23886;46.614;14.276;2022-10-16T04:12:28;38.53;;;34.37;;
12314;SDS011;23886;46.614;14.276;2022-10-16T04:14:57;34.97;;;31.30;;
12314;SDS011;23886;46.614;14.276;2022-10-16T04:17:24;39.80;;;33.67;;
12314;SDS011;23886;46.614;14.276;2022-10-16T04:19:51;38.07;;;32.67;;
12314;SDS011;23886;46.614;14.276;2022-10-16T04:22:18;42.70;;;36.30;;
12314;SDS011;23886;46.614;14.276;2022-10-16T04:24:45;41.77;;;35.40;;
12314;SDS011;23886;46.614;14.276;2022-10-16T04:27:12;39.47;;;33.97;;
12314;SDS011;23886;46.614;14.276;2022-10-16T04:29:39;38.53;;;34.37;;
12314;SDS011;23886;46.614;14.276;2022-10-16T04:32:08;36.63;;;32.83;;
12314;SDS011;23886;46.614;14.276;2022-10-16T04:34:35;36.83;;;32.93;;
12314;SDS011;23886;46.614;14.276;2022-10-16T04:37:04;34.97;;;31.37;;
12314;SDS011;23886;46.614;14.276;2022-10-16T04:39:31;34.23;;;30.57;;
12314;SDS011;23886;46.614;14.276;2022-10-16T04:41:58;36.43;;;32.53;;
12314;SDS011;23886;46.614;14.276;2022-10-16T04:44:25;36.90;;;31.23;;
12314;SDS011;23886;46.614;14.276;2022-10-16T04:46:52;36.90;;;32.90;;
12314;SDS011;23886;46.614;14.276;2022-10-16T04:49:20;35.57;;;30.90;;
12314;SDS011;23886;46.614;14.276;2022-10-16T04:51:47;35.07;;;31.33;;
12314;SDS011;23886;46.614;14.276;2022-10-16T04:54:14;36.13;;;32.30;;
12314;SDS011;23886;46.614;14.276;2022-10-16T04:56:41;34.80;;;30.87;;
12314;SDS011;23886;46.614;14.276;2022-10-16T04:59:12;35.87;;;32.03;;
12314;SDS011;23886;46.614;14.276;2022-10-16T05:01:39;39.17;;;33.47;;
12314;SDS011;23886;46.614;14.276;2022-10-16T05:04:06;38.10;;;33.00;;
12314;SDS011;23886;46.614;14.276;2022-10-16T05:06:35;40.17;;;34.53;;
12314;SDS011;23886;46.614;14.276;2022-10-16T05:09:03;38.87;;;33.90;;
12314;SDS011;23886;46.614;14.276;2022-10-16T05:11:30;44.27;;;36.63;;
12314;SDS011;23886;46.614;14.276;2022-10-16T05:13:57;43.87;;;35.27;;
12314;SDS011;23886;46.614;14.276;2022-10-16T05:16:24;42.93;;;35.43;;
12314;SDS011;23886;46.614;14.276;2022-10-16T05:18:51;44.37;;;36.20;;
12314;SDS011;23886;46.614;14.276;2022-10-16T05:21:18;54.90;;;36.43;;
12314;SDS011;23886;46.614;14.276;2022-10-16T05:23:47;55.57;;;38.30;;
12314;SDS011;23886;46.614;14.276;2022-10-16T05:26:14;39.20;;;34.10;;
12314;SDS011;23886;46.614;14.276;2022-10-16T05:28:41;40.00;;;33.03;;
12314;SDS011;23886;46.614;14.276;2022-10-16T05:31:09;44.53;;;34.47;;
12314;SDS011;23886;46.614;14.276;2022-10-16T05:33:36;44.40;;;34.73;;
12314;SDS011;23886;46.614;14.276;2022-10-16T05:36:03;44.93;;;36.27;;
12314;SDS011;23886;46.614;14.276;2022-10-16T05:38:32;45.60;;;35.70;;
12314;SDS011;23886;46.614;14.276;2022-10-16T05:41:00;51.33;;;36.33;;
12314;SDS011;23886;46.614;14.276;2022-10-16T05:43:28;52.57;;;38.07;;
12314;SDS011;23886;46.614;14.276;2022-10-16T05:45:55;48.43;;;36.80;;
12314;SDS011;23886;46.614;14.276;2022-10-16T05:48:23;48.57;;;37.20;;
12314;SDS011;23886;46.614;14.276;2022-10-16T05:50:56;45.73;;;36.37;;
12314;SDS011;23886;46.614;14.276;2022-10-16T05:53:23;46.40;;;36.57;;
12314;SDS011;23886;46.614;14.276;2022-10-16T05:55:52;49.20;;;36.70;;
12314;SDS011;23886;46.614;14.276;2022-10-16T05:58:20;46.90;;;37.70;;
12314;SDS011;23886;46.614;14.276;2022-10-16T06:00:54;44.07;;;36.17;;
12314;SDS011;23886;46.614;14.276;2022-10-16T06:03:22;42.47;;;34.83;;
12314;SDS011;23886;46.614;14.276;2022-10-16T06:05:49;44.67;;;37.47;;
12314;SDS011;23886;46.614;14.276;2022-10-16T06:08:17;42.30;;;34.47;;
12314;SDS011;23886;46.614;14.276;2022-10-16T06:10:44;46.40;;;36.77;;
12314;SDS011;23886;46.614;14.276;2022-10-16T06:13:12;46.10;;;36.77;;
12314;SDS011;23886;46.614;14.276;2022-10-16T06:15:41;41.50;;;34.47;;
12314;SDS011;23886;46.614;14.276;2022-10-16T06:18:08;44.93;;;34.83;;
12314;SDS011;23886;46.614;14.276;2022-10-16T06:20:36;46.27;;;35.57;;
12314;SDS011;23886;46.614;14.276;2022-10-16T06:23:03;43.60;;;36.07;;
12314;SDS011;23886;46.614;14.276;2022-10-16T06:25:30;47.63;;;34.60;;
12314;SDS011;23886;46.614;14.276;2022-10-16T06:27:57;46.07;;;35.23;;
12314;SDS011;23886;46.614;14.276;2022-10-16T06:30:25;43.70;;;33.33;;
12314;SDS011;23886;46.614;14.276;2022-10-16T06:32:55;43.30;;;34.87;;
12314;SDS011;23886;46.614;14.276;2022-10-16T06:35:21;41.83;;;33.23;;
12314;SDS011;23886;46.614;14.276;2022-10-16T06:37:49;47.70;;;34.13;;
12314;SDS011;23886;46.614;14.276;2022-10-16T06:40:16;38.83;;;32.23;;
12314;SDS011;23886;46.614;14.276;2022-10-16T06:42:42;38.30;;;32.63;;
12314;SDS011;23886;46.614;14.276;2022-10-16T06:45:10;39.53;;;31.03;;
12314;SDS011;23886;46.614;14.276;2022-10-16T06:47:37;35.57;;;30.17;;
12314;SDS011;23886;46.614;14.276;2022-10-16T06:50:06;33.27;;;29.77;;
12314;SDS011;23886;46.614;14.276;2022-10-16T06:52:34;31.80;;;28.37;;
12314;SDS011;23886;46.614;14.276;2022-10-16T06:55:01;31.60;;;27.53;;
12314;SDS011;23886;46.614;14.276;2022-10-16T06:57:28;33.30;;;29.10;;
12314;SDS011;23886;46.614;14.276;2022-10-16T06:59:55;32.90;;;28.83;;
12314;SDS011;23886;46.614;14.276;2022-10-16T07:02:22;33.93;;;29.97;;
12314;SDS011;23886;46.614;14.276;2022-10-16T07:04:49;35.37;;;30.30;;
12314;SDS011;23886;46.614;14.276;2022-10-16T07:07:18;34.93;;;30.97;;
12314;SDS011;23886;46.614;14.276;2022-10-16T07:09:45;37.10;;;31.07;;
12314;SDS011;23886;46.614;14.276;2022-10-16T07:12:12;33.70;;;30.03;;
12314;SDS011;23886;46.614;14.276;2022-10-16T07:14:39;34.83;;;30.10;;
12314;SDS011;23886;46.614;14.276;2022-10-16T07:17:05;33.63;;;29.97;;
12314;SDS011;23886;46.614;14.276;2022-10-16T07:19:33;34.33;;;30.47;;
12314;SDS011;23886;46.614;14.276;2022-10-16T07:22:00;37.37;;;31.80;;
12314;SDS011;23886;46.614;14.276;2022-10-16T07:24:29;35.70;;;30.77;;
12314;SDS011;23886;46.614;14.276;2022-10-16T07:26:56;36.73;;;31.20;;
12314;SDS011;23886;46.614;14.276;2022-10-16T07:29:23;35.37;;;30.13;;
12314;SDS011;23886;46.614;14.276;2022-10-16T07:31:50;34.00;;;30.30;;
12314;SDS011;23886;46.614;14.276;2022-10-16T07:34:17;36.80;;;31.97;;
12314;SDS011;23886;46.614;14.276;2022-10-16T07:36:47;34.77;;;30.73;;
12314;SDS011;23886;46.614;14.276;2022-10-16T07:39:14;36.87;;;31.53;;
12314;SDS011;23886;46.614;14.276;2022-10-16T07:41:43;34.97;;;30.57;;
12314;SDS011;23886;46.614;14.276;2022-10-16T07:44:10;34.63;;;30.87;;
12314;SDS011;23886;46.614;14.276;2022-10-16T07:46:37;33.07;;;29.40;;
12314;SDS011;23886;46.614;14.276;2022-10-16T07:49:04;33.83;;;29.70;;
12314;SDS011;23886;46.614;14.276;2022-10-16T07:51:31;31.43;;;28.13;;
12314;SDS011;23886;46.614;14.276;2022-10-16T07:53:58;30.47;;;27.20;;
12314;SDS011;23886;46.614;14.276;2022-10-16T07:56:25;30.13;;;27.03;;
12314;SDS011;23886;46.614;14.276;2022-10-16T07:58:53;30.63;;;27.23;;
12314;SDS011;23886;46.614;14.276;2022-10-16T08:01:21;30.83;;;27.73;;
12314;SDS011;23886;46.614;14.276;2022-10-16T08:03:48;29.00;;;25.57;;
12314;SDS011;23886;46.614;14.276;2022-10-16T08:06:16;31.13;;;27.83;;
12314;SDS011;23886;46.614;14.276;2022-10-16T08:08:44;31.13;;;27.90;;
12314;SDS011;23886;46.614;14.276;2022-10-16T08:11:12;30.47;;;27.23;;
12314;SDS011;23886;46.614;14.276;2022-10-16T08:13:40;29.27;;;26.27;;
12314;SDS011;23886;46.614;14.276;2022-10-16T08:16:08;29.70;;;26.60;;
12314;SDS011;23886;46.614;14.276;2022-10-16T08:18:36;32.03;;;28.20;;
12314;SDS011;23886;46.614;14.276;2022-10-16T08:21:04;29.00;;;26.00;;
12314;SDS011;23886;46.614;14.276;2022-10-16T08:23:32;30.17;;;27.07;;
12314;SDS011;23886;46.614;14.276;2022-10-16T08:26:02;30.67;;;27.47;;
12314;SDS011;23886;46.614;14.276;2022-10-16T08:28:31;28.50;;;25.53;;
12314;SDS011;23886;46.614;14.276;2022-10-16T08:31:04;29.60;;;26.57;;
12314;SDS011;23886;46.614;14.276;2022-10-16T08:33:33;27.30;;;24.43;;
12314;SDS011;23886;46.614;14.276;2022-10-16T08:36:01;27.60;;;24.73;;
12314;SDS011;23886;46.614;14.276;2022-10-16T08:38:28;27.70;;;24.97;;
12314;SDS011;23886;46.614;14.276;2022-10-16T08:40:57;26.63;;;24.03;;
12314;SDS011;23886;46.614;14.276;2022-10-16T08:43:39;27.57;;;24.87;;
12314;SDS011;23886;46.614;14.276;2022-10-16T08:46:16;26.70;;;24.00;;
12314;SDS011;23886;46.614;14.276;2022-10-16T08:48:56;25.97;;;23.33;;
12314;SDS011;23886;46.614;14.276;2022-10-16T08:51:26;25.33;;;22.83;;
12314;SDS011;23886;46.614;14.276;2022-10-16T08:53:56;25.37;;;23.07;;
12314;SDS011;23886;46.614;14.276;2022-10-16T08:56:24;26.17;;;23.47;;
12314;SDS011;23886;46.614;14.276;2022-10-16T08:58:53;24.83;;;22.50;;
12314;SDS011;23886;46.614;14.276;2022-10-16T09:01:22;25.70;;;23.20;;
12314;SDS011;23886;46.614;14.276;2022-10-16T09:04:06;26.10;;;23.60;;
12314;SDS011;23886;46.614;14.276;2022-10-16T09:06:54;25.73;;;23.13;;
12314;SDS011;23886;46.614;14.276;2022-10-16T09:09:31;26.37;;;23.70;;
12314;SDS011;23886;46.614;14.276;2022-10-16T09:12:12;24.83;;;22.43;;
12314;SDS011;23886;46.614;14.276;2022-10-16T09:14:49;27.43;;;24.73;;
12314;SDS011;23886;46.614;14.276;2022-10-16T09:17:30;25.30;;;22.90;;
12314;SDS011;23886;46.614;14.276;2022-10-16T09:20:12;26.60;;;24.10;;
12314;SDS011;23886;46.614;14.276;2022-10-16T09:22:45;25.03;;;22.53;;
12314;SDS011;23886;46.614;14.276;2022-10-16T09:25:13;24.33;;;21.97;;
12314;SDS011;23886;46.614;14.276;2022-10-16T09:27:42;26.43;;;23.73;;
12314;SDS011;23886;46.614;14.276;2022-10-16T09:30:14;25.63;;;23.10;;
12314;SDS011;23886;46.614;14.276;2022-10-16T09:32:42;26.47;;;23.77;;
12314;SDS011;23886;46.614;14.276;2022-10-16T09:35:14;24.83;;;22.33;;
12314;SDS011;23886;46.614;14.276;2022-10-16T09:37:44;26.93;;;24.13;;
12314;SDS011;23886;46.614;14.276;2022-10-16T09:40:13;24.63;;;22.30;;
12314;SDS011;23886;46.614;14.276;2022-10-16T09:42:56;24.73;;;22.33;;
12314;SDS011;23886;46.614;14.276;2022-10-16T09:45:28;25.97;;;23.20;;
12314;SDS011;23886;46.614;14.276;2022-10-16T09:47:56;26.97;;;24.23;;
12314;SDS011;23886;46.614;14.276;2022-10-16T09:50:25;29.67;;;26.57;;
12314;SDS011;23886;46.614;14.276;2022-10-16T09:53:03;31.57;;;28.37;;
12314;SDS011;23886;46.614;14.276;2022-10-16T09:55:32;25.73;;;23.20;;
12314;SDS011;23886;46.614;14.276;2022-10-16T09:57:59;24.10;;;21.90;;
12314;SDS011;23886;46.614;14.276;2022-10-16T10:00:25;25.13;;;22.63;;
12314;SDS011;23886;46.614;14.276;2022-10-16T10:02:53;24.50;;;21.90;;
12314;SDS011;23886;46.614;14.276;2022-10-16T10:05:21;24.67;;;22.17;;
12314;SDS011;23886;46.614;14.276;2022-10-16T10:07:55;23.93;;;21.73;;
12314;SDS011;23886;46.614;14.276;2022-10-16T10:10:24;23.90;;;21.70;;
12314;SDS011;23886;46.614;14.276;2022-10-16T10:12:53;24.07;;;21.87;;
12314;SDS011;23886;46.614;14.276;2022-10-16T10:15:21;24.23;;;21.77;;
12314;SDS011;23886;46.614;14.276;2022-10-16T10:17:50;24.07;;;21.70;;
12314;SDS011;23886;46.614;14.276;2022-10-16T10:20:22;23.27;;;21.07;;
12314;SDS011;23886;46.614;14.276;2022-10-16T10:22:50;25.20;;;22.27;;
12314;SDS011;23886;46.614;14.276;2022-10-16T10:25:25;23.27;;;21.07;;
12314;SDS011;23886;46.614;14.276;2022-10-16T10:31:03;22.60;;;20.50;;
12314;SDS011;23886;46.614;14.276;2022-10-16T10:33:38;24.43;;;21.27;;
12314;SDS011;23886;46.614;14.276;2022-10-16T10:36:13;22.37;;;20.27;;
12314;SDS011;23886;46.614;14.276;2022-10-16T10:38:50;22.23;;;20.03;;
12314;SDS011;23886;46.614;14.276;2022-10-16T10:44:26;22.23;;;20.23;;
12314;SDS011;23886;46.614;14.276;2022-10-16T10:47:16;21.73;;;19.73;;
12314;SDS011;23886;46.614;14.276;2022-10-16T10:49:54;21.67;;;19.67;;
12314;SDS011;23886;46.614;14.276;2022-10-16T10:52:34;22.00;;;19.97;;
12314;SDS011;23886;46.614;14.276;2022-10-16T10:55:10;25.00;;;22.60;;
12314;SDS011;23886;46.614;14.276;2022-10-16T10:57:49;23.47;;;21.10;;
12314;SDS011;23886;46.614;14.276;2022-10-16T11:00:37;22.80;;;20.70;;
12314;SDS011;23886;46.614;14.276;2022-10-16T11:03:13;22.40;;;20.20;;
12314;SDS011;23886;46.614;14.276;2022-10-16T11:05:52;22.57;;;20.43;;
12314;SDS011;23886;46.614;14.276;2022-10-16T11:08:24;21.87;;;19.87;;
12314;SDS011;23886;46.614;14.276;2022-10-16T11:10:57;22.17;;;20.13;;
12314;SDS011;23886;46.614;14.276;2022-10-16T11:13:30;21.67;;;18.77;;
12314;SDS011;23886;46.614;14.276;2022-10-16T11:16:03;20.27;;;18.27;;
12314;SDS011;23886;46.614;14.276;2022-10-16T11:18:42;19.30;;;17.53;;
12314;SDS011;23886;46.614;14.276;2022-10-16T11:21:16;21.00;;;18.90;;
12314;SDS011;23886;46.614;14.276;2022-10-16T11:23:47;21.73;;;19.70;;
12314;SDS011;23886;46.614;14.276;2022-10-16T11:26:20;20.40;;;18.60;;
12314;SDS011;23886;46.614;14.276;2022-10-16T11:28:53;19.33;;;17.63;;
12314;SDS011;23886;46.614;14.276;2022-10-16T11:31:23;20.43;;;18.57;;
12314;SDS011;23886;46.614;14.276;2022-10-16T11:33:58;18.77;;;17.07;;
12314;SDS011;23886;46.614;14.276;2022-10-16T11:36:32;19.50;;;17.80;;
12314;SDS011;23886;46.614;14.276;2022-10-16T11:39:04;19.13;;;17.10;;
12314;SDS011;23886;46.614;14.276;2022-10-16T11:41:42;19.23;;;17.43;;
12314;SDS011;23886;46.614;14.276;2022-10-16T11:44:16;17.70;;;16.20;;
12314;SDS011;23886;46.614;14.276;2022-10-16T11:46:51;18.07;;;16.47;;
12314;SDS011;23886;46.614;14.276;2022-10-16T11:49:25;17.20;;;15.40;;
12314;SDS011;23886;46.614;14.276;2022-10-16T11:51:55;18.50;;;16.83;;
12314;SDS011;23886;46.614;14.276;2022-10-16T11:54:31;18.63;;;16.83;;
12314;SDS011;23886;46.614;14.276;2022-10-16T11:57:05;19.13;;;17.23;;
12314;SDS011;23886;46.614;14.276;2022-10-16T11:59:41;18.40;;;16.80;;
12314;SDS011;23886;46.614;14.276;2022-10-16T12:05:14;20.20;;;18.30;;
12314;SDS011;23886;46.614;14.276;2022-10-16T12:07:50;18.83;;;17.13;;
12314;SDS011;23886;46.614;14.276;2022-10-16T12:10:26;20.43;;;18.63;;
12314;SDS011;23886;46.614;14.276;2022-10-16T12:12:54;21.27;;;19.27;;
12314;SDS011;23886;46.614;14.276;2022-10-16T12:15:24;20.07;;;18.27;;
12314;SDS011;23886;46.614;14.276;2022-10-16T12:17:52;18.97;;;17.23;;
12314;SDS011;23886;46.614;14.276;2022-10-16T12:20:21;18.57;;;16.87;;
12314;SDS011;23886;46.614;14.276;2022-10-16T12:22:52;19.23;;;17.43;;
12314;SDS011;23886;46.614;14.276;2022-10-16T12:25:22;19.97;;;18.17;;
12314;SDS011;23886;46.614;14.276;2022-10-16T12:27:56;19.70;;;17.90;;
12314;SDS011;23886;46.614;14.276;2022-10-16T12:30:27;18.87;;;17.07;;
12314;SDS011;23886;46.614;14.276;2022-10-16T12:32:55;19.40;;;17.67;;
12314;SDS011;23886;46.614;14.276;2022-10-16T12:35:25;19.13;;;17.37;;
12314;SDS011;23886;46.614;14.276;2022-10-16T12:37:54;17.63;;;16.13;;
12314;SDS011;23886;46.614;14.276;2022-10-16T12:40:32;18.10;;;16.50;;
12314;SDS011;23886;46.614;14.276;2022-10-16T12:43:10;18.33;;;16.70;;
12314;SDS011;23886;46.614;14.276;2022-10-16T12:45:41;18.17;;;16.57;;
12314;SDS011;23886;46.614;14.276;2022-10-16T12:48:18;18.30;;;16.77;;
12314;SDS011;23886;46.614;14.276;2022-10-16T12:50:47;17.77;;;16.13;;
12314;SDS011;23886;46.614;14.276;2022-10-16T12:53:18;17.30;;;15.70;;
12314;SDS011;23886;46.614;14.276;2022-10-16T12:55:49;16.33;;;14.93;;
12314;SDS011;23886;46.614;14.276;2022-10-16T12:58:30;16.30;;;14.63;;
12314;SDS011;23886;46.614;14.276;2022-10-16T13:01:10;15.23;;;13.83;;
12314;SDS011;23886;46.614;14.276;2022-10-16T13:03:53;15.50;;;14.20;;
12314;SDS011;23886;46.614;14.276;2022-10-16T13:06:41;15.43;;;13.97;;
12314;SDS011;23886;46.614;14.276;2022-10-16T13:09:25;15.87;;;14.37;;
12314;SDS011;23886;46.614;14.276;2022-10-16T13:12:06;16.50;;;14.83;;
12314;SDS011;23886;46.614;14.276;2022-10-16T13:14:58;15.90;;;14.60;;
12314;SDS011;23886;46.614;14.276;2022-10-16T13:17:39;17.03;;;15.50;;
12314;SDS011;23886;46.614;14.276;2022-10-16T13:20:14;15.73;;;14.33;;
12314;SDS011;23886;46.614;14.276;2022-10-16T13:22:48;15.63;;;14.13;;
12314;SDS011;23886;46.614;14.276;2022-10-16T13:25:23;14.33;;;13.13;;
12314;SDS011;23886;46.614;14.276;2022-10-16T13:27:59;14.30;;;13.10;;
12314;SDS011;23886;46.614;14.276;2022-10-16T13:30:28;13.87;;;12.60;;
12314;SDS011;23886;46.614;14.276;2022-10-16T13:33:00;14.40;;;13.20;;
12314;SDS011;23886;46.614;14.276;2022-10-16T13:35:30;14.55;;;13.35;;
12314;SDS011;23886;46.614;14.276;2022-10-16T13:38:06;14.40;;;13.00;;
12314;SDS011;23886;46.614;14.276;2022-10-16T13:40:50;12.73;;;11.73;;
12314;SDS011;23886;46.614;14.276;2022-10-16T13:43:18;13.30;;;12.20;;
12314;SDS011;23886;46.614;14.276;2022-10-16T13:45:55;12.75;;;11.65;;
12314;SDS011;23886;46.614;14.276;2022-10-16T13:48:24;13.25;;;12.07;;
12314;SDS011;23886;46.614;14.276;2022-10-16T13:50:58;12.02;;;11.07;;
12314;SDS011;23886;46.614;14.276;2022-10-16T13:53:26;12.52;;;11.52;;
12314;SDS011;23886;46.614;14.276;2022-10-16T13:55:53;12.85;;;11.75;;
12314;SDS011;23886;46.614;14.276;2022-10-16T13:58:20;12.43;;;11.43;;
12314;SDS011;23886;46.614;14.276;2022-10-16T14:00:54;11.55;;;10.65;;
12314;SDS011;23886;46.614;14.276;2022-10-16T14:03:24;12.30;;;11.23;;
12314;SDS011;23886;46.614;14.276;2022-10-16T14:05:53;12.52;;;11.48;;
12314;SDS011;23886;46.614;14.276;2022-10-16T14:08:23;13.10;;;12.00;;
12314;SDS011;23886;46.614;14.276;2022-10-16T14:10:52;12.70;;;11.60;;
12314;SDS011;23886;46.614;14.276;2022-10-16T14:13:28;11.52;;;10.68;;
12314;SDS011;23886;46.614;14.276;2022-10-16T14:15:57;11.07;;;10.13;;
12314;SDS011;23886;46.614;14.276;2022-10-16T14:18:30;12.13;;;11.00;;
12314;SDS011;23886;46.614;14.276;2022-10-16T14:21:02;11.85;;;10.75;;
12314;SDS011;23886;46.614;14.276;2022-10-16T14:23:31;12.27;;;11.38;;
12314;SDS011;23886;46.614;14.276;2022-10-16T14:26:05;11.65;;;10.55;;
12314;SDS011;23886;46.614;14.276;2022-10-16T14:28:40;12.07;;;11.07;;
12314;SDS011;23886;46.614;14.276;2022-10-16T14:33:59;10.90;;;10.00;;
12314;SDS011;23886;46.614;14.276;2022-10-16T14:36:27;12.70;;;11.70;;
12314;SDS011;23886;46.614;14.276;2022-10-16T14:38:59;12.00;;;10.90;;